sensor_id;sensor_type;location;lat;lon;timestamp;P1;durP1;ratioP1;P2;durP2;ratioP2
77451;SDS011;66537;52.370;4.832;2023-01-26T00:03:34;58.35;;;20.75;;
77451;SDS011;66537;52.370;4.832;2023-01-26T00:06:06;53.35;;;19.50;;
77451;SDS011;66537;52.370;4.832;2023-01-26T00:08:37;50.35;;;19.55;;
77451;SDS011;66537;52.370;4.832;2023-01-26T00:11:04;54.63;;;19.63;;
77451;SDS011;66537;52.370;4.832;2023-01-26T00:13:30;57.50;;;21.88;;
77451;SDS011;66537;52.370;4.832;2023-01-26T00:15:56;52.08;;;19.42;;
77451;SDS011;66537;52.370;4.832;2023-01-26T00:18:21;54.47;;;19.83;;
77451;SDS011;66537;52.370;4.832;2023-01-26T00:20:47;53.77;;;19.97;;
77451;SDS011;66537;52.370;4.832;2023-01-26T00:23:12;56.10;;;19.25;;
77451;SDS011;66537;52.370;4.832;2023-01-26T00:25:38;51.60;;;18.40;;
77451;SDS011;66537;52.370;4.832;2023-01-26T00:28:06;57.67;;;20.88;;
77451;SDS011;66537;52.370;4.832;2023-01-26T00:30:31;51.00;;;19.47;;
77451;SDS011;66537;52.370;4.832;2023-01-26T00:32:57;52.10;;;20.05;;
77451;SDS011;66537;52.370;4.832;2023-01-26T00:35:22;49.00;;;17.83;;
77451;SDS011;66537;52.370;4.832;2023-01-26T00:37:48;47.80;;;18.52;;
77451;SDS011;66537;52.370;4.832;2023-01-26T00:40:13;51.92;;;19.55;;
77451;SDS011;66537;52.370;4.832;2023-01-26T00:42:39;56.83;;;20.50;;
77451;SDS011;66537;52.370;4.832;2023-01-26T00:45:05;50.03;;;18.60;;
77451;SDS011;66537;52.370;4.832;2023-01-26T00:47:30;52.88;;;18.85;;
77451;SDS011;66537;52.370;4.832;2023-01-26T00:49:55;49.03;;;19.07;;
77451;SDS011;66537;52.370;4.832;2023-01-26T00:52:21;42.67;;;16.23;;
77451;SDS011;66537;52.370;4.832;2023-01-26T00:54:46;42.27;;;16.10;;
77451;SDS011;66537;52.370;4.832;2023-01-26T00:57:12;42.50;;;17.48;;
77451;SDS011;66537;52.370;4.832;2023-01-26T00:59:37;46.13;;;17.37;;
77451;SDS011;66537;52.370;4.832;2023-01-26T01:02:02;42.50;;;17.33;;
77451;SDS011;66537;52.370;4.832;2023-01-26T01:04:28;42.63;;;16.65;;
77451;SDS011;66537;52.370;4.832;2023-01-26T01:06:55;46.63;;;17.55;;
77451;SDS011;66537;52.370;4.832;2023-01-26T01:09:21;49.88;;;19.08;;
77451;SDS011;66537;52.370;4.832;2023-01-26T01:11:47;42.13;;;16.23;;
77451;SDS011;66537;52.370;4.832;2023-01-26T01:14:12;44.97;;;16.85;;
77451;SDS011;66537;52.370;4.832;2023-01-26T01:16:38;43.30;;;15.73;;
77451;SDS011;66537;52.370;4.832;2023-01-26T01:19:04;42.17;;;16.98;;
77451;SDS011;66537;52.370;4.832;2023-01-26T01:21:30;47.70;;;17.67;;
77451;SDS011;66537;52.370;4.832;2023-01-26T01:23:56;52.80;;;20.60;;
77451;SDS011;66537;52.370;4.832;2023-01-26T01:26:22;49.05;;;18.00;;
77451;SDS011;66537;52.370;4.832;2023-01-26T01:28:47;48.47;;;18.70;;
77451;SDS011;66537;52.370;4.832;2023-01-26T01:31:13;46.05;;;17.60;;
77451;SDS011;66537;52.370;4.832;2023-01-26T01:33:40;43.83;;;17.13;;
77451;SDS011;66537;52.370;4.832;2023-01-26T01:36:07;45.40;;;17.40;;
77451;SDS011;66537;52.370;4.832;2023-01-26T01:38:36;44.78;;;17.48;;
77451;SDS011;66537;52.370;4.832;2023-01-26T01:41:01;50.13;;;19.00;;
77451;SDS011;66537;52.370;4.832;2023-01-26T01:43:27;52.75;;;19.38;;
77451;SDS011;66537;52.370;4.832;2023-01-26T01:45:53;43.08;;;17.55;;
77451;SDS011;66537;52.370;4.832;2023-01-26T01:50:54;52.00;;;18.60;;
77451;SDS011;66537;52.370;4.832;2023-01-26T01:53:24;45.08;;;17.45;;
77451;SDS011;66537;52.370;4.832;2023-01-26T01:55:56;51.83;;;18.58;;
77451;SDS011;66537;52.370;4.832;2023-01-26T01:58:23;48.97;;;18.77;;
77451;SDS011;66537;52.370;4.832;2023-01-26T02:00:50;49.17;;;18.52;;
77451;SDS011;66537;52.370;4.832;2023-01-26T02:03:16;45.28;;;17.23;;
77451;SDS011;66537;52.370;4.832;2023-01-26T02:05:48;53.25;;;19.95;;
77451;SDS011;66537;52.370;4.832;2023-01-26T02:08:20;50.22;;;18.23;;
77451;SDS011;66537;52.370;4.832;2023-01-26T02:10:49;51.50;;;18.60;;
77451;SDS011;66537;52.370;4.832;2023-01-26T02:13:19;54.00;;;20.23;;
77451;SDS011;66537;52.370;4.832;2023-01-26T02:15:47;48.33;;;17.95;;
77451;SDS011;66537;52.370;4.832;2023-01-26T02:18:15;52.05;;;18.40;;
77451;SDS011;66537;52.370;4.832;2023-01-26T02:20:44;41.90;;;16.92;;
77451;SDS011;66537;52.370;4.832;2023-01-26T02:23:21;53.60;;;20.33;;
77451;SDS011;66537;52.370;4.832;2023-01-26T02:28:47;38.13;;;15.23;;
77451;SDS011;66537;52.370;4.832;2023-01-26T02:31:13;35.83;;;14.63;;
77451;SDS011;66537;52.370;4.832;2023-01-26T02:33:40;39.38;;;15.77;;
77451;SDS011;66537;52.370;4.832;2023-01-26T02:36:06;39.85;;;15.88;;
77451;SDS011;66537;52.370;4.832;2023-01-26T02:38:41;43.83;;;16.83;;
77451;SDS011;66537;52.370;4.832;2023-01-26T02:41:12;39.53;;;15.07;;
77451;SDS011;66537;52.370;4.832;2023-01-26T02:43:59;41.00;;;16.98;;
77451;SDS011;66537;52.370;4.832;2023-01-26T02:46:26;41.00;;;16.27;;
77451;SDS011;66537;52.370;4.832;2023-01-26T02:48:51;42.63;;;17.37;;
77451;SDS011;66537;52.370;4.832;2023-01-26T02:51:35;35.42;;;15.55;;
77451;SDS011;66537;52.370;4.832;2023-01-26T02:54:00;35.50;;;15.07;;
77451;SDS011;66537;52.370;4.832;2023-01-26T02:56:26;37.97;;;14.93;;
77451;SDS011;66537;52.370;4.832;2023-01-26T02:58:51;37.20;;;15.43;;
77451;SDS011;66537;52.370;4.832;2023-01-26T03:01:16;41.77;;;15.50;;
77451;SDS011;66537;52.370;4.832;2023-01-26T03:03:42;42.83;;;15.30;;
77451;SDS011;66537;52.370;4.832;2023-01-26T03:06:09;36.20;;;14.55;;
77451;SDS011;66537;52.370;4.832;2023-01-26T03:08:35;35.60;;;14.73;;
77451;SDS011;66537;52.370;4.832;2023-01-26T03:11:01;42.50;;;16.98;;
77451;SDS011;66537;52.370;4.832;2023-01-26T03:13:27;34.45;;;13.73;;
77451;SDS011;66537;52.370;4.832;2023-01-26T03:15:52;39.22;;;15.30;;
77451;SDS011;66537;52.370;4.832;2023-01-26T03:18:18;36.50;;;15.38;;
77451;SDS011;66537;52.370;4.832;2023-01-26T03:21:05;38.45;;;15.73;;
77451;SDS011;66537;52.370;4.832;2023-01-26T03:23:54;38.25;;;15.57;;
77451;SDS011;66537;52.370;4.832;2023-01-26T03:26:38;42.25;;;16.38;;
77451;SDS011;66537;52.370;4.832;2023-01-26T03:29:22;37.15;;;15.07;;
77451;SDS011;66537;52.370;4.832;2023-01-26T03:31:50;40.08;;;15.25;;
77451;SDS011;66537;52.370;4.832;2023-01-26T03:34:16;31.83;;;14.45;;
77451;SDS011;66537;52.370;4.832;2023-01-26T03:36:41;30.33;;;12.63;;
77451;SDS011;66537;52.370;4.832;2023-01-26T03:39:07;31.50;;;12.68;;
77451;SDS011;66537;52.370;4.832;2023-01-26T03:41:32;34.85;;;12.63;;
77451;SDS011;66537;52.370;4.832;2023-01-26T03:44:16;31.13;;;13.48;;
77451;SDS011;66537;52.370;4.832;2023-01-26T03:47:00;31.95;;;13.70;;
77451;SDS011;66537;52.370;4.832;2023-01-26T03:49:44;33.53;;;14.30;;
77451;SDS011;66537;52.370;4.832;2023-01-26T03:52:30;32.03;;;12.25;;
77451;SDS011;66537;52.370;4.832;2023-01-26T03:55:15;32.67;;;14.20;;
77451;SDS011;66537;52.370;4.832;2023-01-26T03:57:59;29.17;;;12.90;;
77451;SDS011;66537;52.370;4.832;2023-01-26T04:00:25;33.40;;;14.95;;
77451;SDS011;66537;52.370;4.832;2023-01-26T04:02:50;34.40;;;13.80;;
77451;SDS011;66537;52.370;4.832;2023-01-26T04:05:34;33.90;;;14.52;;
77451;SDS011;66537;52.370;4.832;2023-01-26T04:08:18;30.75;;;13.63;;
77451;SDS011;66537;52.370;4.832;2023-01-26T04:10:47;31.85;;;13.45;;
77451;SDS011;66537;52.370;4.832;2023-01-26T04:13:15;33.50;;;14.43;;
77451;SDS011;66537;52.370;4.832;2023-01-26T04:15:59;33.78;;;14.10;;
77451;SDS011;66537;52.370;4.832;2023-01-26T04:18:43;32.97;;;14.02;;
77451;SDS011;66537;52.370;4.832;2023-01-26T04:21:27;32.40;;;14.00;;
77451;SDS011;66537;52.370;4.832;2023-01-26T04:23:53;29.85;;;13.82;;
77451;SDS011;66537;52.370;4.832;2023-01-26T04:26:22;31.90;;;14.57;;
77451;SDS011;66537;52.370;4.832;2023-01-26T04:28:48;32.53;;;14.57;;
77451;SDS011;66537;52.370;4.832;2023-01-26T04:31:14;30.20;;;14.38;;
77451;SDS011;66537;52.370;4.832;2023-01-26T04:33:40;31.60;;;15.27;;
77451;SDS011;66537;52.370;4.832;2023-01-26T04:36:07;34.08;;;14.95;;
77451;SDS011;66537;52.370;4.832;2023-01-26T04:38:33;32.45;;;13.25;;
77451;SDS011;66537;52.370;4.832;2023-01-26T04:40:59;31.08;;;14.60;;
77451;SDS011;66537;52.370;4.832;2023-01-26T04:43:24;32.63;;;13.87;;
77451;SDS011;66537;52.370;4.832;2023-01-26T04:45:56;33.03;;;13.40;;
77451;SDS011;66537;52.370;4.832;2023-01-26T04:48:22;32.20;;;13.80;;
77451;SDS011;66537;52.370;4.832;2023-01-26T04:50:55;40.90;;;15.20;;
77451;SDS011;66537;52.370;4.832;2023-01-26T04:53:22;31.63;;;13.63;;
77451;SDS011;66537;52.370;4.832;2023-01-26T04:55:47;33.20;;;14.00;;
77451;SDS011;66537;52.370;4.832;2023-01-26T04:58:13;34.05;;;13.98;;
77451;SDS011;66537;52.370;4.832;2023-01-26T05:00:38;30.10;;;12.95;;
77451;SDS011;66537;52.370;4.832;2023-01-26T05:03:04;33.50;;;13.47;;
77451;SDS011;66537;52.370;4.832;2023-01-26T05:05:29;36.60;;;12.73;;
77451;SDS011;66537;52.370;4.832;2023-01-26T05:07:54;30.33;;;12.37;;
77451;SDS011;66537;52.370;4.832;2023-01-26T05:10:20;29.42;;;12.88;;
77451;SDS011;66537;52.370;4.832;2023-01-26T05:12:45;31.67;;;11.57;;
77451;SDS011;66537;52.370;4.832;2023-01-26T05:15:10;30.60;;;11.53;;
77451;SDS011;66537;52.370;4.832;2023-01-26T05:17:36;32.63;;;11.33;;
77451;SDS011;66537;52.370;4.832;2023-01-26T05:20:01;26.17;;;8.52;;
77451;SDS011;66537;52.370;4.832;2023-01-26T05:22:27;29.73;;;9.38;;
77451;SDS011;66537;52.370;4.832;2023-01-26T05:24:52;26.40;;;9.03;;
77451;SDS011;66537;52.370;4.832;2023-01-26T05:27:17;26.03;;;7.90;;
77451;SDS011;66537;52.370;4.832;2023-01-26T05:29:46;30.65;;;8.15;;
77451;SDS011;66537;52.370;4.832;2023-01-26T05:32:12;30.05;;;7.68;;
77451;SDS011;66537;52.370;4.832;2023-01-26T05:34:38;26.17;;;6.55;;
77451;SDS011;66537;52.370;4.832;2023-01-26T05:37:03;25.20;;;5.80;;
77451;SDS011;66537;52.370;4.832;2023-01-26T05:39:29;33.25;;;7.32;;
77451;SDS011;66537;52.370;4.832;2023-01-26T05:41:54;24.88;;;5.72;;
77451;SDS011;66537;52.370;4.832;2023-01-26T05:44:20;25.35;;;4.70;;
77451;SDS011;66537;52.370;4.832;2023-01-26T05:46:47;24.48;;;5.05;;
77451;SDS011;66537;52.370;4.832;2023-01-26T05:49:12;29.17;;;5.30;;
77451;SDS011;66537;52.370;4.832;2023-01-26T05:51:37;28.27;;;4.70;;
77451;SDS011;66537;52.370;4.832;2023-01-26T05:54:03;27.52;;;4.75;;
77451;SDS011;66537;52.370;4.832;2023-01-26T05:56:28;21.23;;;3.28;;
77451;SDS011;66537;52.370;4.832;2023-01-26T05:58:54;28.60;;;4.03;;
77451;SDS011;66537;52.370;4.832;2023-01-26T06:01:19;25.00;;;4.03;;
77451;SDS011;66537;52.370;4.832;2023-01-26T06:03:44;22.67;;;3.30;;
77451;SDS011;66537;52.370;4.832;2023-01-26T06:06:10;25.50;;;3.20;;
77451;SDS011;66537;52.370;4.832;2023-01-26T06:08:35;21.20;;;4.07;;
77451;SDS011;66537;52.370;4.832;2023-01-26T06:11:00;20.67;;;3.30;;
77451;SDS011;66537;52.370;4.832;2023-01-26T06:13:26;22.17;;;3.65;;
77451;SDS011;66537;52.370;4.832;2023-01-26T06:15:51;23.90;;;3.15;;
77451;SDS011;66537;52.370;4.832;2023-01-26T06:18:16;21.50;;;2.93;;
77451;SDS011;66537;52.370;4.832;2023-01-26T06:20:42;21.27;;;3.23;;
77451;SDS011;66537;52.370;4.832;2023-01-26T06:23:07;24.88;;;3.83;;
77451;SDS011;66537;52.370;4.832;2023-01-26T06:25:36;23.70;;;2.90;;
77451;SDS011;66537;52.370;4.832;2023-01-26T06:28:03;14.98;;;1.92;;
77451;SDS011;66537;52.370;4.832;2023-01-26T06:30:29;21.90;;;3.40;;
77451;SDS011;66537;52.370;4.832;2023-01-26T06:32:54;28.25;;;3.28;;
77451;SDS011;66537;52.370;4.832;2023-01-26T06:35:20;22.65;;;2.83;;
77451;SDS011;66537;52.370;4.832;2023-01-26T06:37:47;23.90;;;3.67;;
77451;SDS011;66537;52.370;4.832;2023-01-26T06:40:14;17.55;;;3.20;;
77451;SDS011;66537;52.370;4.832;2023-01-26T06:42:39;25.40;;;3.28;;
77451;SDS011;66537;52.370;4.832;2023-01-26T06:45:11;23.13;;;3.47;;
77451;SDS011;66537;52.370;4.832;2023-01-26T06:47:36;20.77;;;3.50;;
77451;SDS011;66537;52.370;4.832;2023-01-26T06:50:01;24.17;;;3.70;;
77451;SDS011;66537;52.370;4.832;2023-01-26T06:54:57;15.30;;;2.90;;
77451;SDS011;66537;52.370;4.832;2023-01-26T06:57:24;18.23;;;3.22;;
77451;SDS011;66537;52.370;4.832;2023-01-26T06:59:50;21.30;;;3.17;;
77451;SDS011;66537;52.370;4.832;2023-01-26T07:02:16;21.15;;;4.03;;
77451;SDS011;66537;52.370;4.832;2023-01-26T07:04:44;19.58;;;3.70;;
77451;SDS011;66537;52.370;4.832;2023-01-26T07:07:10;24.67;;;4.05;;
77451;SDS011;66537;52.370;4.832;2023-01-26T07:09:36;23.15;;;3.13;;
77451;SDS011;66537;52.370;4.832;2023-01-26T07:12:01;21.07;;;3.43;;
77451;SDS011;66537;52.370;4.832;2023-01-26T07:14:26;21.23;;;3.13;;
77451;SDS011;66537;52.370;4.832;2023-01-26T07:16:52;18.93;;;3.17;;
77451;SDS011;66537;52.370;4.832;2023-01-26T07:19:17;24.27;;;3.97;;
77451;SDS011;66537;52.370;4.832;2023-01-26T07:21:42;25.23;;;4.63;;
77451;SDS011;66537;52.370;4.832;2023-01-26T07:24:08;25.83;;;3.90;;
77451;SDS011;66537;52.370;4.832;2023-01-26T07:26:33;26.83;;;4.63;;
77451;SDS011;66537;52.370;4.832;2023-01-26T07:28:59;28.48;;;5.85;;
77451;SDS011;66537;52.370;4.832;2023-01-26T07:31:24;24.90;;;6.50;;
77451;SDS011;66537;52.370;4.832;2023-01-26T07:33:49;21.70;;;4.97;;
77451;SDS011;66537;52.370;4.832;2023-01-26T07:36:15;22.90;;;3.93;;
77451;SDS011;66537;52.370;4.832;2023-01-26T07:38:40;28.52;;;3.65;;
77451;SDS011;66537;52.370;4.832;2023-01-26T07:41:09;20.17;;;2.77;;
77451;SDS011;66537;52.370;4.832;2023-01-26T07:43:37;32.70;;;3.75;;
77451;SDS011;66537;52.370;4.832;2023-01-26T07:46:03;19.30;;;3.75;;
77451;SDS011;66537;52.370;4.832;2023-01-26T07:48:29;24.20;;;4.25;;
77451;SDS011;66537;52.370;4.832;2023-01-26T07:50:58;22.23;;;3.63;;
77451;SDS011;66537;52.370;4.832;2023-01-26T07:53:24;22.75;;;3.33;;
77451;SDS011;66537;52.370;4.832;2023-01-26T07:55:53;22.45;;;3.83;;
77451;SDS011;66537;52.370;4.832;2023-01-26T07:58:18;17.88;;;2.22;;
77451;SDS011;66537;52.370;4.832;2023-01-26T08:00:44;33.97;;;3.60;;
77451;SDS011;66537;52.370;4.832;2023-01-26T08:03:12;22.50;;;3.22;;
77451;SDS011;66537;52.370;4.832;2023-01-26T08:05:38;24.17;;;3.83;;
77451;SDS011;66537;52.370;4.832;2023-01-26T08:08:03;18.92;;;2.83;;
77451;SDS011;66537;52.370;4.832;2023-01-26T08:10:29;24.00;;;3.75;;
77451;SDS011;66537;52.370;4.832;2023-01-26T08:12:58;27.92;;;3.95;;
77451;SDS011;66537;52.370;4.832;2023-01-26T08:15:24;20.23;;;2.50;;
77451;SDS011;66537;52.370;4.832;2023-01-26T08:17:50;29.70;;;3.80;;
77451;SDS011;66537;52.370;4.832;2023-01-26T08:20:16;28.83;;;3.92;;
77451;SDS011;66537;52.370;4.832;2023-01-26T08:22:42;19.25;;;3.08;;
77451;SDS011;66537;52.370;4.832;2023-01-26T08:25:07;21.38;;;3.00;;
77451;SDS011;66537;52.370;4.832;2023-01-26T08:27:33;21.10;;;3.85;;
77451;SDS011;66537;52.370;4.832;2023-01-26T08:29:58;21.67;;;2.93;;
77451;SDS011;66537;52.370;4.832;2023-01-26T08:32:24;21.88;;;3.20;;
77451;SDS011;66537;52.370;4.832;2023-01-26T08:34:49;26.52;;;2.95;;
77451;SDS011;66537;52.370;4.832;2023-01-26T08:37:15;24.53;;;3.13;;
77451;SDS011;66537;52.370;4.832;2023-01-26T08:39:40;28.47;;;3.70;;
77451;SDS011;66537;52.370;4.832;2023-01-26T08:42:05;19.90;;;2.60;;
77451;SDS011;66537;52.370;4.832;2023-01-26T08:44:31;31.52;;;3.30;;
77451;SDS011;66537;52.370;4.832;2023-01-26T08:46:56;20.07;;;3.50;;
77451;SDS011;66537;52.370;4.832;2023-01-26T08:49:21;22.60;;;2.97;;
77451;SDS011;66537;52.370;4.832;2023-01-26T08:51:46;18.87;;;3.77;;
77451;SDS011;66537;52.370;4.832;2023-01-26T08:54:12;31.75;;;3.60;;
77451;SDS011;66537;52.370;4.832;2023-01-26T08:56:37;21.50;;;2.97;;
77451;SDS011;66537;52.370;4.832;2023-01-26T08:59:02;23.40;;;2.37;;
77451;SDS011;66537;52.370;4.832;2023-01-26T09:01:28;28.27;;;3.67;;
77451;SDS011;66537;52.370;4.832;2023-01-26T09:03:53;15.90;;;3.05;;
77451;SDS011;66537;52.370;4.832;2023-01-26T09:06:20;23.85;;;2.60;;
77451;SDS011;66537;52.370;4.832;2023-01-26T09:08:45;21.42;;;3.65;;
77451;SDS011;66537;52.370;4.832;2023-01-26T09:11:11;20.38;;;3.22;;
77451;SDS011;66537;52.370;4.832;2023-01-26T09:13:37;17.38;;;2.80;;
77451;SDS011;66537;52.370;4.832;2023-01-26T09:16:06;23.80;;;2.70;;
77451;SDS011;66537;52.370;4.832;2023-01-26T09:18:36;22.95;;;3.50;;
77451;SDS011;66537;52.370;4.832;2023-01-26T09:21:05;26.77;;;3.42;;
77451;SDS011;66537;52.370;4.832;2023-01-26T09:23:32;22.23;;;3.25;;
77451;SDS011;66537;52.370;4.832;2023-01-26T09:25:58;23.42;;;2.50;;
77451;SDS011;66537;52.370;4.832;2023-01-26T09:28:23;15.50;;;2.85;;
77451;SDS011;66537;52.370;4.832;2023-01-26T09:30:49;22.38;;;4.22;;
77451;SDS011;66537;52.370;4.832;2023-01-26T09:33:14;22.05;;;2.88;;
77451;SDS011;66537;52.370;4.832;2023-01-26T09:35:40;20.87;;;3.17;;
77451;SDS011;66537;52.370;4.832;2023-01-26T09:38:05;15.07;;;2.63;;
77451;SDS011;66537;52.370;4.832;2023-01-26T09:40:40;20.77;;;2.80;;
77451;SDS011;66537;52.370;4.832;2023-01-26T09:49:07;17.15;;;3.50;;
77451;SDS011;66537;52.370;4.832;2023-01-26T09:51:37;18.88;;;2.42;;
77451;SDS011;66537;52.370;4.832;2023-01-26T09:54:05;19.38;;;2.40;;
77451;SDS011;66537;52.370;4.832;2023-01-26T09:56:34;19.00;;;2.70;;
77451;SDS011;66537;52.370;4.832;2023-01-26T09:59:03;18.27;;;2.95;;
77451;SDS011;66537;52.370;4.832;2023-01-26T10:01:36;19.17;;;3.15;;
77451;SDS011;66537;52.370;4.832;2023-01-26T10:06:50;18.95;;;3.45;;
77451;SDS011;66537;52.370;4.832;2023-01-26T10:09:21;16.70;;;2.83;;
77451;SDS011;66537;52.370;4.832;2023-01-26T10:11:55;11.85;;;2.28;;
77451;SDS011;66537;52.370;4.832;2023-01-26T10:14:32;18.05;;;2.75;;
77451;SDS011;66537;52.370;4.832;2023-01-26T10:25:41;21.60;;;2.63;;
77451;SDS011;66537;52.370;4.832;2023-01-26T10:28:14;13.88;;;2.80;;
77451;SDS011;66537;52.370;4.832;2023-01-26T10:30:41;20.77;;;3.13;;
77451;SDS011;66537;52.370;4.832;2023-01-26T10:33:17;18.83;;;3.15;;
77451;SDS011;66537;52.370;4.832;2023-01-26T10:35:46;20.10;;;2.92;;
77451;SDS011;66537;52.370;4.832;2023-01-26T10:41:18;19.83;;;3.03;;
77451;SDS011;66537;52.370;4.832;2023-01-26T10:46:28;18.60;;;2.90;;
77451;SDS011;66537;52.370;4.832;2023-01-26T10:51:33;16.98;;;2.83;;
77451;SDS011;66537;52.370;4.832;2023-01-26T10:59:26;16.40;;;3.05;;
77451;SDS011;66537;52.370;4.832;2023-01-26T11:01:56;17.70;;;2.50;;
77451;SDS011;66537;52.370;4.832;2023-01-26T11:04:26;20.30;;;2.72;;
77451;SDS011;66537;52.370;4.832;2023-01-26T11:06:52;17.33;;;2.40;;
77451;SDS011;66537;52.370;4.832;2023-01-26T11:09:23;20.80;;;2.70;;
77451;SDS011;66537;52.370;4.832;2023-01-26T11:11:54;20.05;;;2.33;;
77451;SDS011;66537;52.370;4.832;2023-01-26T11:14:22;16.85;;;2.60;;
77451;SDS011;66537;52.370;4.832;2023-01-26T11:16:49;17.90;;;2.50;;
77451;SDS011;66537;52.370;4.832;2023-01-26T11:25:10;19.33;;;2.33;;
77451;SDS011;66537;52.370;4.832;2023-01-26T11:28:05;18.75;;;2.22;;
77451;SDS011;66537;52.370;4.832;2023-01-26T11:36:45;21.27;;;2.50;;
77451;SDS011;66537;52.370;4.832;2023-01-26T11:44:41;20.42;;;3.15;;
77451;SDS011;66537;52.370;4.832;2023-01-26T11:50:15;11.63;;;1.98;;
77451;SDS011;66537;52.370;4.832;2023-01-26T11:58:56;20.52;;;2.72;;
77451;SDS011;66537;52.370;4.832;2023-01-26T12:01:33;19.08;;;3.67;;
77451;SDS011;66537;52.370;4.832;2023-01-26T12:04:04;16.80;;;2.60;;
77451;SDS011;66537;52.370;4.832;2023-01-26T12:09:12;17.95;;;3.03;;
77451;SDS011;66537;52.370;4.832;2023-01-26T12:12:03;16.15;;;2.58;;
77451;SDS011;66537;52.370;4.832;2023-01-26T12:14:51;16.00;;;2.47;;
77451;SDS011;66537;52.370;4.832;2023-01-26T12:22:46;15.52;;;1.77;;
77451;SDS011;66537;52.370;4.832;2023-01-26T12:31:12;10.85;;;1.40;;
77451;SDS011;66537;52.370;4.832;2023-01-26T12:33:44;11.25;;;1.75;;
77451;SDS011;66537;52.370;4.832;2023-01-26T12:45:09;11.60;;;1.40;;
77451;SDS011;66537;52.370;4.832;2023-01-26T12:52:59;12.27;;;1.38;;
77451;SDS011;66537;52.370;4.832;2023-01-26T12:55:39;15.90;;;2.47;;
77451;SDS011;66537;52.370;4.832;2023-01-26T12:58:21;19.88;;;2.92;;
77451;SDS011;66537;52.370;4.832;2023-01-26T13:00:52;21.02;;;2.22;;
77451;SDS011;66537;52.370;4.832;2023-01-26T13:03:36;14.93;;;2.00;;
77451;SDS011;66537;52.370;4.832;2023-01-26T13:11:05;13.23;;;1.63;;
77451;SDS011;66537;52.370;4.832;2023-01-26T13:18:52;12.30;;;1.48;;
77451;SDS011;66537;52.370;4.832;2023-01-26T13:24:10;10.85;;;1.13;;
77451;SDS011;66537;52.370;4.832;2023-01-26T13:26:53;12.15;;;1.23;;
77451;SDS011;66537;52.370;4.832;2023-01-26T13:31:49;9.60;;;2.15;;
77451;SDS011;66537;52.370;4.832;2023-01-26T13:34:15;9.07;;;1.48;;
77451;SDS011;66537;52.370;4.832;2023-01-26T13:36:43;9.60;;;1.42;;
77451;SDS011;66537;52.370;4.832;2023-01-26T13:39:17;15.38;;;1.70;;
77451;SDS011;66537;52.370;4.832;2023-01-26T13:41:46;14.32;;;1.77;;
77451;SDS011;66537;52.370;4.832;2023-01-26T13:44:55;10.82;;;0.85;;
77451;SDS011;66537;52.370;4.832;2023-01-26T13:47:06;9.40;;;1.30;;
77451;SDS011;66537;52.370;4.832;2023-01-26T13:49:36;16.83;;;2.30;;
77451;SDS011;66537;52.370;4.832;2023-01-26T13:52:12;16.13;;;1.80;;
77451;SDS011;66537;52.370;4.832;2023-01-26T13:54:41;12.50;;;2.10;;
77451;SDS011;66537;52.370;4.832;2023-01-26T13:57:11;12.80;;;1.33;;
77451;SDS011;66537;52.370;4.832;2023-01-26T13:59:50;11.23;;;2.40;;
77451;SDS011;66537;52.370;4.832;2023-01-26T14:04:51;9.90;;;1.48;;
77451;SDS011;66537;52.370;4.832;2023-01-26T14:07:19;10.02;;;1.25;;
77451;SDS011;66537;52.370;4.832;2023-01-26T14:09:49;12.50;;;1.65;;
77451;SDS011;66537;52.370;4.832;2023-01-26T14:12:24;13.15;;;2.40;;
77451;SDS011;66537;52.370;4.832;2023-01-26T14:14:56;10.68;;;1.63;;
77451;SDS011;66537;52.370;4.832;2023-01-26T14:17:45;10.90;;;1.52;;
77451;SDS011;66537;52.370;4.832;2023-01-26T14:20:32;11.10;;;1.45;;
77451;SDS011;66537;52.370;4.832;2023-01-26T14:25:32;10.95;;;1.30;;
77451;SDS011;66537;52.370;4.832;2023-01-26T14:27:57;10.27;;;1.30;;
77451;SDS011;66537;52.370;4.832;2023-01-26T14:30:24;12.43;;;1.58;;
77451;SDS011;66537;52.370;4.832;2023-01-26T14:33:02;11.80;;;1.52;;
77451;SDS011;66537;52.370;4.832;2023-01-26T14:35:30;12.15;;;1.50;;
77451;SDS011;66537;52.370;4.832;2023-01-26T14:38:11;9.02;;;1.50;;
77451;SDS011;66537;52.370;4.832;2023-01-26T14:40:44;8.40;;;1.50;;
77451;SDS011;66537;52.370;4.832;2023-01-26T14:45:42;7.00;;;1.30;;
77451;SDS011;66537;52.370;4.832;2023-01-26T14:48:11;12.60;;;1.50;;
77451;SDS011;66537;52.370;4.832;2023-01-26T14:50:40;10.18;;;1.35;;
77451;SDS011;66537;52.370;4.832;2023-01-26T14:53:15;12.07;;;1.98;;
77451;SDS011;66537;52.370;4.832;2023-01-26T14:55:43;14.38;;;1.75;;
77451;SDS011;66537;52.370;4.832;2023-01-26T14:58:13;13.75;;;1.70;;
77451;SDS011;66537;52.370;4.832;2023-01-26T15:00:49;11.88;;;1.60;;
77451;SDS011;66537;52.370;4.832;2023-01-26T15:03:22;14.40;;;1.48;;
77451;SDS011;66537;52.370;4.832;2023-01-26T15:05:48;9.20;;;1.30;;
77451;SDS011;66537;52.370;4.832;2023-01-26T15:08:28;10.05;;;1.30;;
77451;SDS011;66537;52.370;4.832;2023-01-26T15:11:01;10.90;;;1.52;;
77451;SDS011;66537;52.370;4.832;2023-01-26T15:13:46;9.35;;;1.00;;
77451;SDS011;66537;52.370;4.832;2023-01-26T15:16:17;8.93;;;1.45;;
77451;SDS011;66537;52.370;4.832;2023-01-26T15:18:56;7.15;;;0.80;;
77451;SDS011;66537;52.370;4.832;2023-01-26T15:21:23;10.05;;;1.33;;
77451;SDS011;66537;52.370;4.832;2023-01-26T15:23:56;16.58;;;1.98;;
77451;SDS011;66537;52.370;4.832;2023-01-26T15:26:26;12.50;;;1.40;;
77451;SDS011;66537;52.370;4.832;2023-01-26T15:28:56;9.00;;;1.20;;
77451;SDS011;66537;52.370;4.832;2023-01-26T15:31:34;9.90;;;1.48;;
77451;SDS011;66537;52.370;4.832;2023-01-26T15:34:02;12.05;;;1.70;;
77451;SDS011;66537;52.370;4.832;2023-01-26T15:39:15;6.70;;;1.50;;
77451;SDS011;66537;52.370;4.832;2023-01-26T15:41:42;13.48;;;1.63;;
77451;SDS011;66537;52.370;4.832;2023-01-26T15:44:17;13.30;;;1.48;;
77451;SDS011;66537;52.370;4.832;2023-01-26T15:46:45;10.27;;;1.15;;
77451;SDS011;66537;52.370;4.832;2023-01-26T15:49:11;13.20;;;1.77;;
77451;SDS011;66537;52.370;4.832;2023-01-26T15:51:37;7.50;;;1.20;;
77451;SDS011;66537;52.370;4.832;2023-01-26T15:54:03;9.82;;;1.35;;
77451;SDS011;66537;52.370;4.832;2023-01-26T15:56:29;10.23;;;1.02;;
77451;SDS011;66537;52.370;4.832;2023-01-26T15:58:54;12.00;;;1.20;;
77451;SDS011;66537;52.370;4.832;2023-01-26T16:01:20;11.85;;;1.80;;
77451;SDS011;66537;52.370;4.832;2023-01-26T16:03:47;12.07;;;1.38;;
77451;SDS011;66537;52.370;4.832;2023-01-26T16:06:22;14.63;;;1.95;;
77451;SDS011;66537;52.370;4.832;2023-01-26T16:08:50;12.85;;;1.83;;
77451;SDS011;66537;52.370;4.832;2023-01-26T16:11:16;12.05;;;1.40;;
77451;SDS011;66537;52.370;4.832;2023-01-26T16:13:43;9.65;;;1.52;;
77451;SDS011;66537;52.370;4.832;2023-01-26T16:16:09;11.25;;;1.30;;
77451;SDS011;66537;52.370;4.832;2023-01-26T16:18:36;12.13;;;1.88;;
77451;SDS011;66537;52.370;4.832;2023-01-26T16:21:02;11.67;;;2.00;;
77451;SDS011;66537;52.370;4.832;2023-01-26T16:23:39;20.02;;;2.42;;
77451;SDS011;66537;52.370;4.832;2023-01-26T16:26:07;13.50;;;1.38;;
77451;SDS011;66537;52.370;4.832;2023-01-26T16:28:34;16.35;;;1.98;;
77451;SDS011;66537;52.370;4.832;2023-01-26T16:30:59;12.67;;;1.50;;
77451;SDS011;66537;52.370;4.832;2023-01-26T16:33:25;17.17;;;1.98;;
77451;SDS011;66537;52.370;4.832;2023-01-26T16:35:51;16.10;;;2.25;;
77451;SDS011;66537;52.370;4.832;2023-01-26T16:38:17;11.40;;;2.65;;
77451;SDS011;66537;52.370;4.832;2023-01-26T16:40:44;17.50;;;2.08;;
77451;SDS011;66537;52.370;4.832;2023-01-26T16:43:16;18.77;;;3.45;;